Time;durP1;ratioP1;P1;durP2;ratioP2;P2;SDS_P1;SDS_P2;PMS_P1;PMS_P2;Temp;Humidity;BMP_temperature;BMP_pressure;BME280_temperature;BME280_humidity;BME280_pressure;Samples;Min_cycle;Max_cycle;Signal;HPM_P1;HPM_P2
2022/10/24 00:02:13;;;;;;;;;0.00;0.00;;;;;19.65;61.26;100236.88;5075500;27;45427;-74
2022/10/24 00:04:39;;;;;;;;;2.33;1.00;;;;;19.66;61.29;100227.75;5073883;28;46012;-73
2022/10/24 00:07:05;;;;;;;;;1.00;0.00;;;;;19.19;61.48;100160.59;5075323;28;45396;-73
2022/10/24 00:09:31;;;;;;;;;1.67;0.00;;;;;19.34;61.41;100190.59;5075188;28;45396;-73
2022/10/24 00:11:57;;;;;;;;;0.00;0.00;;;;;19.61;61.79;100237.34;5075251;28;45367;-73
2022/10/24 00:14:22;;;;;;;;;0.00;0.00;;;;;19.60;62.25;100246.50;5074945;28;47084;-73
2022/10/24 00:16:48;;;;;;;;;2.00;0.00;;;;;19.58;62.20;100233.09;5075034;27;45385;-73
2022/10/24 00:19:13;;;;;;;;;0.00;0.00;;;;;19.61;62.08;100238.22;5074751;27;45282;-73
2022/10/24 00:21:38;;;;;;;;;0.00;0.00;;;;;19.61;62.53;100238.22;5073829;28;45569;-73
2022/10/24 00:24:05;;;;;;;;;0.00;0.00;;;;;19.59;62.12;100242.09;5075003;28;45310;-73
2022/10/24 00:26:30;;;;;;;;;2.00;0.50;;;;;19.55;62.89;100232.59;5074932;28;45319;-73
2022/10/24 00:28:56;;;;;;;;;2.25;0.00;;;;;19.50;63.01;100223.13;5074865;27;45294;-73
2022/10/24 00:31:21;;;;;;;;;1.25;0.00;;;;;19.47;62.72;100215.31;5075375;28;45521;-73
2022/10/24 00:33:47;;;;;;;;;1.00;1.00;;;;;19.52;62.91;100235.66;5078745;28;45389;-73
2022/10/24 00:36:20;;;;;;;;;1.25;0.00;;;;;19.52;62.87;100241.06;5078676;28;45281;-73
2022/10/24 00:38:46;;;;;;;;;0.25;0.00;;;;;19.49;63.13;100242.22;5078164;27;45285;-73
2022/10/24 00:41:17;;;;;;;;;2.00;0.75;;;;;19.42;63.16;100246.56;5078106;28;45233;-74
2022/10/24 00:43:43;;;;;;;;;0.00;0.00;;;;;19.30;63.57;100240.56;5078161;28;45491;-72
2022/10/24 00:46:08;;;;;;;;;1.00;0.00;;;;;19.37;63.16;100260.56;5078324;28;45345;-74
2022/10/24 00:48:47;;;;;;;;;0.00;0.00;;;;;19.34;63.56;100255.50;5077071;28;45373;-75
2022/10/24 00:51:23;;;;;;;;;0.00;0.00;;;;;19.26;63.40;100256.28;5078421;28;45370;-72
2022/10/24 00:53:51;;;;;;;;;0.00;0.00;;;;;19.27;63.79;100273.34;5077845;28;46688;-72
2022/10/24 00:58:55;;;;;;;;;4.50;0.00;;;;;19.23;63.57;100258.44;5574399;22;46211;-71
2022/10/24 01:01:20;;;;;;;;;0.50;0.00;;;;;18.58;63.38;100156.97;5068562;27;45463;-71
2022/10/24 01:03:46;;;;;;;;;2.75;1.00;;;;;19.16;63.64;100263.66;5074679;28;46275;-69
2022/10/24 01:06:38;;;;;;;;;3.75;0.25;;;;;19.24;63.44;100266.41;5060365;28;45676;-70
2022/10/24 01:09:03;;;;;;;;;1.00;0.00;;;;;19.21;63.91;100282.09;5065260;28;45324;-70
2022/10/24 01:11:31;;;;;;;;;0.00;0.00;;;;;19.13;63.89;100291.84;5078564;28;45553;-71
2022/10/24 01:14:06;;;;;;;;;1.75;0.50;;;;;19.17;63.94;100297.78;5078189;28;46562;-72
2022/10/24 01:16:40;;;;;;;;;1.00;1.00;;;;;19.12;63.72;100295.53;5078342;28;45395;-72
2022/10/24 01:19:16;;;;;;;;;1.00;1.00;;;;;19.15;64.10;100307.91;5058560;28;45374;-72
2022/10/24 01:21:47;;;;;;;;;0.00;0.00;;;;;18.84;64.38;100248.84;5058329;28;45281;-72
2022/10/24 01:24:37;;;;;;;;;2.00;0.00;;;;;19.14;64.23;100315.16;5057917;28;46112;-72
2022/10/24 01:27:27;;;;;;;;;0.00;0.00;;;;;18.97;64.14;100297.13;5058210;28;45367;-72
2022/10/24 01:29:59;;;;;;;;;0.00;0.00;;;;;19.02;64.39;100292.09;5039753;28;45402;-72
2022/10/24 01:32:49;;;;;;;;;1.75;0.50;;;;;19.02;64.75;100311.03;5058019;28;45546;-72
2022/10/24 01:35:39;;;;;;;;;1.00;1.00;;;;;18.97;64.94;100313.34;5069071;28;45508;-72
2022/10/24 01:38:32;;;;;;;;;0.25;0.00;;;;;18.92;64.96;100318.38;5078146;28;45362;-73
2022/10/24 01:41:04;;;;;;;;;0.00;0.00;;;;;18.66;65.36;100284.00;5078105;28;45338;-72
2022/10/24 01:43:39;;;;;;;;;2.75;0.00;;;;;18.81;65.08;100304.06;5077015;28;45380;-72
2022/10/24 01:46:12;;;;;;;;;1.00;0.50;;;;;18.69;65.92;100297.19;5077102;28;46441;-72
2022/10/24 01:48:45;;;;;;;;;0.00;0.00;;;;;18.56;65.90;100273.28;5075243;28;45351;-71
2022/10/24 01:51:14;;;;;;;;;0.00;0.00;;;;;18.66;65.93;100295.66;5077940;28;45455;-72
2022/10/24 01:53:42;;;;;;;;;3.00;0.00;;;;;18.52;65.85;100260.22;5078338;28;45399;-72
2022/10/24 01:56:08;;;;;;;;;0.33;0.00;;;;;18.71;65.98;100294.34;5077691;28;45584;-72
2022/10/24 01:58:33;;;;;;;;;0.00;0.00;;;;;18.67;66.35;100310.00;5077441;28;45420;-72
2022/10/24 02:01:04;;;;;;;;;1.25;0.00;;;;;18.52;66.34;100274.59;5077406;28;45433;-72
2022/10/24 02:03:35;;;;;;;;;0.50;0.50;;;;;18.48;65.97;100265.94;5077982;28;45287;-72
2022/10/24 02:06:15;;;;;;;;;2.00;0.75;;;;;18.35;66.33;100243.03;5077622;28;47507;-72
2022/10/24 02:08:47;;;;;;;;;1.50;0.50;;;;;18.67;66.34;100300.03;5077914;28;45344;-72
2022/10/24 02:11:13;;;;;;;;;0.75;0.00;;;;;18.31;66.85;100237.94;5077762;28;45324;-72
2022/10/24 02:13:44;;;;;;;;;1.75;1.00;;;;;18.60;66.81;100284.63;5076415;28;45215;-72
2022/10/24 02:16:10;;;;;;;;;0.00;0.00;;;;;18.59;66.89;100289.16;5077329;28;45430;-72
2022/10/24 02:18:37;;;;;;;;;1.00;0.00;;;;;18.47;67.23;100268.81;5077656;28;45394;-73
2022/10/24 02:21:32;;;;;;;;;2.00;1.00;;;;;18.49;67.35;100264.09;5059356;28;45399;-72
2022/10/24 02:24:08;;;;;;;;;0.50;0.25;;;;;18.52;67.31;100280.00;5077573;28;45345;-70
2022/10/24 02:26:45;;;;;;;;;3.50;0.00;;;;;18.31;67.70;100248.75;5076568;28;45343;-72
2022/10/24 02:29:17;;;;;;;;;2.00;0.50;;;;;18.37;67.69;100255.38;5077130;28;45257;-72
2022/10/24 02:31:49;;;;;;;;;1.50;1.00;;;;;18.29;67.89;100255.31;5077241;28;45400;-72
2022/10/24 02:34:17;;;;;;;;;0.50;0.00;;;;;18.18;68.09;100237.47;5077512;28;45415;-72
2022/10/24 02:36:45;;;;;;;;;0.00;0.00;;;;;18.11;67.92;100223.75;5058268;28;47335;-72
2022/10/24 02:39:12;;;;;;;;;3.00;0.00;;;;;18.14;68.23;100241.47;5056750;28;45303;-72
2022/10/24 02:41:41;;;;;;;;;1.50;0.00;;;;;18.30;68.58;100252.44;5056900;28;45443;-72
2022/10/24 02:44:08;;;;;;;;;0.25;0.25;;;;;18.20;68.49;100229.22;5056742;28;45421;-72
2022/10/24 02:46:34;;;;;;;;;1.00;1.00;;;;;18.30;68.45;100246.19;5056617;28;46160;-72
2022/10/24 02:49:02;;;;;;;;;1.75;0.25;;;;;18.30;68.74;100251.56;5056710;28;45285;-72
2022/10/24 02:51:31;;;;;;;;;1.00;0.00;;;;;18.28;68.52;100259.84;5056527;28;45306;-73
2022/10/24 02:53:59;;;;;;;;;3.00;0.75;;;;;18.16;68.89;100242.16;5056807;28;45529;-73
2022/10/24 02:56:25;;;;;;;;;1.50;0.00;;;;;18.25;69.09;100267.41;5056548;28;45573;-72
2022/10/24 02:58:50;;;;;;;;;0.00;0.00;;;;;18.14;69.09;100228.00;5037466;28;45356;-72
2022/10/24 03:01:15;;;;;;;;;1.00;0.00;;;;;17.95;69.00;100215.44;5058524;28;45227;-71
2022/10/24 03:03:41;;;;;;;;;2.67;0.00;;;;;18.22;69.19;100255.06;5077026;28;45237;-72
2022/10/24 03:06:06;;;;;;;;;1.50;1.50;;;;;18.25;69.33;100265.53;5076774;28;47424;-71
2022/10/24 03:08:31;;;;;;;;;1.00;1.00;;;;;17.70;68.87;100190.88;5076758;28;45329;-72
2022/10/24 03:10:57;;;;;;;;;1.00;1.00;;;;;18.13;69.19;100251.41;5076929;28;45267;-72
2022/10/24 03:13:23;;;;;;;;;2.00;0.00;;;;;17.82;69.13;100205.84;5076589;28;45488;-72
2022/10/24 03:15:48;;;;;;;;;0.00;0.00;;;;;18.25;68.86;100270.94;5075144;28;46268;-73
2022/10/24 03:18:13;;;;;;;;;1.50;0.25;;;;;17.86;69.31;100210.94;5076435;28;45378;-72
2022/10/24 03:20:39;;;;;;;;;2.00;1.50;;;;;17.87;69.33;100221.59;5077158;28;45461;-72
2022/10/24 03:23:04;;;;;;;;;2.00;0.50;;;;;18.22;68.93;100281.19;5077194;28;45416;-72
2022/10/24 03:25:30;;;;;;;;;1.00;1.00;;;;;18.12;69.61;100271.28;5076823;28;46612;-72
2022/10/24 03:27:55;;;;;;;;;0.75;0.75;;;;;18.02;69.22;100251.63;5076248;28;45410;-73
2022/10/24 03:30:20;;;;;;;;;0.00;0.00;;;;;17.97;69.60;100262.03;5076555;28;45425;-72
2022/10/24 03:32:46;;;;;;;;;1.00;0.00;;;;;17.84;69.77;100235.34;5058304;28;45375;-72
2022/10/24 03:35:11;;;;;;;;;3.00;1.00;;;;;17.94;69.72;100246.16;5076467;28;45614;-72
2022/10/24 03:37:36;;;;;;;;;1.00;0.00;;;;;17.99;69.88;100260.88;5076286;28;45366;-73
2022/10/24 03:40:02;;;;;;;;;1.00;1.00;;;;;17.77;69.95;100240.50;5076242;28;45363;-72
2022/10/24 03:42:27;;;;;;;;;2.00;1.00;;;;;17.86;70.32;100267.59;5075952;28;45406;-71
2022/10/24 03:44:53;;;;;;;;;1.00;1.00;;;;;18.02;70.31;100291.25;5076276;28;46412;-73
2022/10/24 03:47:18;;;;;;;;;1.33;0.67;;;;;18.02;70.33;100296.66;5076327;28;45382;-72
2022/10/24 03:49:44;;;;;;;;;2.75;1.00;;;;;17.90;70.60;100299.53;5076418;28;45322;-72
2022/10/24 03:52:11;;;;;;;;;2.00;1.00;;;;;17.98;70.68;100301.50;5075091;28;45384;-71
2022/10/24 03:54:37;;;;;;;;;4.00;1.25;;;;;17.80;70.44;100272.59;5076336;28;46448;-73
2022/10/24 03:57:03;;;;;;;;;1.00;1.00;;;;;17.99;70.55;100305.88;5075603;28;45386;-72
2022/10/24 03:59:28;;;;;;;;;1.50;0.75;;;;;17.86;70.37;100291.88;5075872;28;45415;-72
2022/10/24 04:01:54;;;;;;;;;1.00;0.00;;;;;17.71;70.51;100283.41;5075988;28;45414;-72
2022/10/24 04:04:19;;;;;;;;;2.00;2.00;;;;;17.87;70.46;100307.06;5075877;28;45939;-72
2022/10/24 04:06:45;;;;;;;;;2.25;1.00;;;;;17.83;70.31;100303.81;5075047;28;45389;-72
2022/10/24 04:09:11;;;;;;;;;2.00;1.00;;;;;17.95;70.71;100339.56;5075613;28;45409;-73
2022/10/24 04:11:36;;;;;;;;;0.00;0.00;;;;;17.67;70.85;100296.38;5075795;28;45356;-72
2022/10/24 04:14:02;;;;;;;;;0.50;0.00;;;;;17.76;70.83;100313.50;5075859;28;46439;-72
2022/10/24 04:16:27;;;;;;;;;3.50;1.50;;;;;17.65;70.92;100303.75;5075792;28;45398;-71
2022/10/24 04:18:52;;;;;;;;;7.00;0.75;;;;;17.53;70.82;100283.34;5075820;28;45312;-72
2022/10/24 04:21:18;;;;;;;;;3.25;2.00;;;;;17.94;71.25;100343.28;5075825;28;45620;-72
2022/10/24 04:23:44;;;;;;;;;4.50;0.75;;;;;17.82;71.45;100335.34;5075341;28;46576;-71
2022/10/24 04:26:14;;;;;;;;;3.00;1.50;;;;;17.54;71.39;100287.75;5075436;28;45331;-72
2022/10/24 04:28:39;;;;;;;;;3.25;0.00;;;;;17.71;71.50;100313.94;5075327;28;45380;-72
2022/10/24 04:31:05;;;;;;;;;1.00;1.00;;;;;17.79;71.59;100332.09;5075729;28;45364;-72
2022/10/24 04:33:30;;;;;;;;;3.50;1.50;;;;;17.54;71.17;100293.16;5075183;28;45607;-72
2022/10/24 04:35:56;;;;;;;;;2.50;0.50;;;;;17.75;71.51;100341.50;5075423;28;45375;-72
2022/10/24 04:38:21;;;;;;;;;0.00;0.00;;;;;17.75;71.42;100345.03;5060744;22;45394;-65
2022/10/24 04:40:49;;;;;;;;;2.00;2.00;;;;;17.87;71.20;100363.72;5055085;28;45483;-63
2022/10/24 04:43:14;;;;;;;;;1.25;1.25;;;;;17.55;71.02;100313.72;5070528;28;46946;-65
2022/10/24 04:45:39;;;;;;;;;6.50;1.75;;;;;17.87;70.85;100372.69;5054748;28;45409;-63
2022/10/24 04:48:05;;;;;;;;;2.00;2.00;;;;;17.72;71.00;100349.84;5054947;28;45299;-64
2022/10/24 04:50:30;;;;;;;;;1.25;1.00;;;;;17.73;71.14;100363.19;5054951;28;45546;-65
2022/10/24 04:52:56;;;;;;;;;1.00;0.00;;;;;17.79;71.16;100378.81;5054533;28;46435;-64
2022/10/24 04:55:21;;;;;;;;;1.50;1.50;;;;;17.70;71.14;100363.50;5054780;28;45349;-64
2022/10/24 04:57:47;;;;;;;;;2.75;1.25;;;;;17.77;71.21;100379.94;5055035;28;45372;-64
2022/10/24 05:00:12;;;;;;;;;2.00;0.75;;;;;17.71;71.24;100392.16;5054719;28;45309;-64
2022/10/24 05:02:38;;;;;;;;;2.75;1.00;;;;;17.77;71.45;100402.34;5054539;28;45585;-66
2022/10/24 05:05:04;;;;;;;;;4.00;2.00;;;;;17.78;71.14;100405.94;5054530;28;45251;-65
2022/10/24 05:07:29;;;;;;;;;0.50;0.25;;;;;17.69;71.48;100398.72;5054523;28;45353;-67
2022/10/24 05:09:55;;;;;;;;;0.25;0.25;;;;;17.11;71.29;100309.72;5053569;28;45415;-65
2022/10/24 05:12:20;;;;;;;;;2.00;1.00;;;;;17.78;71.43;100419.41;5054250;28;45420;-64
2022/10/24 05:14:46;;;;;;;;;1.50;1.00;;;;;17.71;71.54;100423.66;5054541;28;45322;-64
2022/10/24 05:17:12;;;;;;;;;3.00;1.00;;;;;16.75;71.43;100258.25;5054889;28;45223;-64
2022/10/24 05:19:37;;;;;;;;;1.75;1.00;;;;;17.76;71.51;100443.84;5058035;28;45553;-65
2022/10/24 05:22:03;;;;;;;;;5.00;1.00;;;;;17.45;71.71;100398.19;5057695;28;47315;-65
2022/10/24 05:24:29;;;;;;;;;3.00;1.25;;;;;17.71;71.98;100448.81;5058276;28;45333;-65
2022/10/24 05:26:54;;;;;;;;;2.00;1.00;;;;;17.42;72.05;100397.63;5058235;28;45428;-65
2022/10/24 05:29:20;;;;;;;;;2.00;1.00;;;;;17.46;71.70;100405.28;5058280;28;45369;-65
2022/10/24 05:31:45;;;;;;;;;3.00;0.67;;;;;17.71;72.20;100454.22;5057794;28;46284;-65
2022/10/24 05:34:11;;;;;;;;;1.50;1.00;;;;;17.66;72.55;100454.63;5057636;28;45382;-65
2022/10/24 05:36:36;;;;;;;;;3.75;1.25;;;;;17.48;72.39;100421.31;5057806;28;45336;-65
2022/10/24 05:39:02;;;;;;;;;3.00;1.00;;;;;17.65;72.63;100465.56;5058729;28;45709;-65
2022/10/24 05:41:27;;;;;;;;;2.50;1.00;;;;;17.57;72.56;100446.56;5062382;28;45565;-65
2022/10/24 05:43:52;;;;;;;;;3.50;2.00;;;;;17.54;73.37;100449.56;5061655;28;45356;-65
2022/10/24 05:46:17;;;;;;;;;2.00;2.00;;;;;17.59;73.26;100453.50;5060668;28;45396;-65
2022/10/24 05:48:43;;;;;;;;;1.33;0.67;;;;;17.63;73.21;100448.69;5060014;28;45384;-65
2022/10/24 05:51:08;;;;;;;;;2.00;1.00;;;;;17.49;73.16;100440.03;5056430;28;46207;-65
2022/10/24 05:53:33;;;;;;;;;1.50;1.00;;;;;17.55;73.75;100445.88;5060436;28;45363;-65
2022/10/24 05:55:59;;;;;;;;;1.00;1.00;;;;;17.45;73.39;100441.31;5060370;28;45524;-65
2022/10/24 05:58:26;;;;;;;;;4.00;1.25;;;;;16.97;73.75;100355.94;5042228;28;45338;-65
2022/10/24 06:00:52;;;;;;;;;1.25;1.25;;;;;17.63;73.56;100459.47;5059003;28;45552;-65
2022/10/24 06:03:17;;;;;;;;;0.25;0.25;;;;;17.55;73.62;100445.88;5041481;28;45577;-65
2022/10/24 06:05:43;;;;;;;;;3.00;2.00;;;;;17.51;73.99;100442.59;5039150;28;45253;-65
2022/10/24 06:08:09;;;;;;;;;3.00;2.00;;;;;17.60;73.87;100462.44;5050720;28;45444;-65
2022/10/24 06:10:35;;;;;;;;;2.00;1.00;;;;;17.57;74.13;100457.34;5038524;28;45611;-65
2022/10/24 06:13:01;;;;;;;;;3.00;2.00;;;;;17.44;74.43;100442.31;5037002;28;45354;-67
2022/10/24 06:15:26;;;;;;;;;3.00;2.00;;;;;17.52;74.48;100456.91;5036581;28;45384;-65
2022/10/24 06:17:52;;;;;;;;;2.50;1.50;;;;;17.35;73.85;100429.69;5046474;28;45563;-65
2022/10/24 06:20:17;;;;;;;;;3.00;3.00;;;;;17.55;73.81;100446.72;5055895;28;45397;-66
2022/10/24 06:22:46;;;;;;;;;2.00;2.00;;;;;17.61;73.64;100458.75;5057090;28;45488;-66
2022/10/24 06:25:13;;;;;;;;;2.25;1.25;;;;;17.46;73.93;100440.34;5057717;28;45335;-65
2022/10/24 06:27:39;;;;;;;;;0.50;0.50;;;;;17.45;73.75;100435.94;5056429;28;45537;-65
2022/10/24 06:30:05;;;;;;;;;2.33;1.00;;;;;17.41;73.93;100436.34;5056327;28;46978;-65
2022/10/24 06:32:31;;;;;;;;;2.00;1.00;;;;;17.57;73.99;100462.75;5056430;28;45469;-65
2022/10/24 06:34:56;;;;;;;;;5.00;2.00;;;;;17.48;74.25;100465.31;5056444;28;45404;-65
2022/10/24 06:37:22;;;;;;;;;3.00;1.00;;;;;17.47;74.17;100468.97;5056706;28;45361;-65
2022/10/24 06:39:48;;;;;;;;;1.75;1.00;;;;;17.25;74.01;100439.66;5057032;28;46448;-65
2022/10/24 06:42:13;;;;;;;;;1.00;1.00;;;;;17.46;73.64;100475.41;5054279;28;45646;-65
2022/10/24 06:44:39;;;;;;;;;2.25;0.00;;;;;17.48;73.87;100499.50;5036771;28;45429;-65
2022/10/24 06:47:05;;;;;;;;;3.50;2.00;;;;;17.15;73.94;100451.28;5035084;28;45523;-65
2022/10/24 06:49:31;;;;;;;;;1.00;1.00;;;;;17.48;73.93;100513.00;5035988;28;46197;-64
2022/10/24 06:51:56;;;;;;;;;3.50;2.00;;;;;17.43;73.59;100502.63;5036551;28;45321;-65
2022/10/24 06:54:21;;;;;;;;;1.00;1.00;;;;;17.30;73.52;100486.75;5018864;28;45623;-65
2022/10/24 06:56:47;;;;;;;;;0.50;0.00;;;;;17.46;73.89;100515.84;5036941;28;45231;-64
2022/10/24 06:59:15;;;;;;;;;4.75;3.25;;;;;17.47;73.46;100516.69;5055802;28;46263;-65
2022/10/24 07:01:41;;;;;;;;;4.00;2.00;;;;;17.27;73.32;100478.06;5056511;28;45416;-64
2022/10/24 07:04:06;;;;;;;;;0.75;0.00;;;;;17.54;73.02;100514.28;5056293;28;45302;-64
2022/10/24 07:06:32;;;;;;;;;2.25;2.00;;;;;17.42;72.48;100500.06;5056430;28;45486;-65
2022/10/24 07:08:59;;;;;;;;;1.00;1.00;;;;;17.51;72.37;100526.19;5055783;28;45356;-66
2022/10/24 07:11:25;;;;;;;;;3.50;1.00;;;;;17.73;72.16;100552.00;5056376;28;45274;-66
2022/10/24 07:13:51;;;;;;;;;1.50;0.00;;;;;17.65;72.25;100539.25;5056300;28;45261;-65
2022/10/24 07:16:17;;;;;;;;;4.25;2.00;;;;;17.80;72.26;100557.69;5056208;28;45343;-65
2022/10/24 07:18:42;;;;;;;;;1.50;0.50;;;;;17.85;72.03;100555.44;5055534;28;46169;-64
2022/10/24 07:21:13;;;;;;;;;6.25;1.00;;;;;17.62;71.36;100519.81;5048360;28;45400;-65
2022/10/24 07:23:38;;;;;;;;;3.75;1.50;;;;;17.61;71.54;100527.06;5053125;28;45432;-65
2022/10/24 07:26:05;;;;;;;;;1.50;1.25;;;;;17.79;71.61;100556.84;5055896;28;45385;-66
2022/10/24 07:28:32;;;;;;;;;3.00;1.00;;;;;17.88;71.70;100571.31;5055650;28;47506;-65
2022/10/24 07:30:58;;;;;;;;;3.00;3.00;;;;;17.79;71.42;100529.88;5053687;28;45428;-65
2022/10/24 07:33:24;;;;;;;;;6.00;2.50;;;;;17.80;71.16;100528.88;5045862;28;45386;-65
2022/10/24 07:35:49;;;;;;;;;3.00;1.50;;;;;17.77;71.18;100534.53;5043592;28;45567;-65
2022/10/24 07:38:16;;;;;;;;;1.75;1.75;;;;;17.64;71.46;100536.72;5046618;28;45967;-65
2022/10/24 07:40:41;;;;;;;;;0.50;0.50;;;;;17.75;71.45;100551.91;5044172;28;45377;-65
2022/10/24 07:43:06;;;;;;;;;0.75;0.75;;;;;17.68;71.71;100543.53;5049711;28;45639;-65
2022/10/24 07:45:32;;;;;;;;;1.00;0.00;;;;;17.83;71.99;100576.31;5046920;28;45314;-66
2022/10/24 07:47:58;;;;;;;;;4.50;2.00;;;;;17.88;71.95;100570.47;5044307;28;45561;-65
2022/10/24 07:50:24;;;;;;;;;3.75;2.00;;;;;17.99;71.54;100573.91;5050600;28;45685;-65
2022/10/24 07:52:50;;;;;;;;;2.00;1.50;;;;;18.13;71.43;100579.88;5055698;28;45380;-63
2022/10/24 07:55:15;;;;;;;;;1.50;1.50;;;;;18.04;71.38;100573.47;5055062;28;45547;-65
2022/10/24 07:57:40;;;;;;;;;3.00;2.00;;;;;17.97;71.08;100559.69;5055233;28;46487;-64
2022/10/24 08:00:06;;;;;;;;;6.50;2.75;;;;;18.02;70.87;100567.38;5055760;28;45341;-66
2022/10/24 08:02:32;;;;;;;;;3.25;2.00;;;;;18.20;70.81;100596.34;5055473;28;45218;-66
2022/10/24 08:04:57;;;;;;;;;3.00;3.00;;;;;18.16;71.01;100593.06;5055618;28;45540;-65
2022/10/24 08:07:23;;;;;;;;;3.00;2.75;;;;;18.13;71.21;100586.09;5053084;28;47220;-65
2022/10/24 08:09:50;;;;;;;;;1.50;1.00;;;;;18.08;70.86;100571.34;5055549;28;45363;-65
2022/10/24 08:12:16;;;;;;;;;0.75;0.75;;;;;17.94;70.32;100562.69;5049857;28;45511;-65
2022/10/24 08:14:42;;;;;;;;;0.33;0.00;;;;;18.22;70.70;100594.34;5053949;28;45420;-66
2022/10/24 08:17:08;;;;;;;;;0.50;0.00;;;;;18.19;70.88;100591.94;5054070;28;45514;-66
2022/10/24 08:19:34;;;;;;;;;1.50;1.50;;;;;18.01;71.23;100587.25;5048327;28;45612;-65
2022/10/24 08:22:00;;;;;;;;;1.00;1.00;;;;;18.06;71.36;100601.19;5055293;28;45455;-65
2022/10/24 08:24:26;;;;;;;;;1.25;1.25;;;;;18.06;71.35;100595.78;5069225;28;45564;-65
2022/10/24 08:26:51;;;;;;;;;4.25;3.00;;;;;18.09;71.43;100608.16;5053062;28;46216;-65
2022/10/24 08:29:24;;;;;;;;;4.50;1.50;;;;;18.09;71.26;100606.28;5035996;28;45620;-65
2022/10/24 08:31:51;;;;;;;;;2.00;0.75;;;;;18.18;71.67;100619.91;5045734;28;45353;-65
2022/10/24 08:34:18;;;;;;;;;0.75;0.75;;;;;18.10;71.01;100583.72;5035189;28;45487;-66
2022/10/24 08:36:44;;;;;;;;;0.00;0.00;;;;;18.51;70.70;100610.47;5034633;28;46051;-66
2022/10/24 08:39:10;;;;;;;;;3.75;1.00;;;;;18.52;70.85;100622.13;5044351;28;45437;-65
2022/10/24 08:41:38;;;;;;;;;1.50;0.75;;;;;18.37;70.95;100629.84;5035766;28;45437;-65
2022/10/24 08:44:15;;;;;;;;;1.67;1.67;;;;;18.30;70.73;100622.31;5035037;28;45464;-66
2022/10/24 08:46:55;;;;;;;;;0.75;0.75;;;;;18.97;68.47;100578.22;5034461;28;46183;-66
2022/10/24 08:49:57;;;;;;;;;1.00;0.33;;;;;19.42;67.01;100636.03;5047840;28;45697;-66
2022/10/24 08:52:41;;;;;;;;;2.00;2.00;;;;;19.33;67.18;100619.72;5034992;28;45375;-66
2022/10/24 08:55:24;;;;;;;;;2.25;1.25;;;;;19.32;67.19;100625.28;5038391;28;45494;-66
2022/10/24 08:57:56;;;;;;;;;0.67;0.67;;;;;19.51;67.02;100637.81;5039887;28;46221;-66
2022/10/24 09:00:37;;;;;;;;;5.75;2.25;;;;;20.00;65.50;100635.66;5056307;28;45259;-66
2022/10/24 09:03:25;;;;;;;;;3.00;2.00;;;;;20.09;64.35;100622.19;5058512;28;45443;-66
2022/10/24 09:05:54;;;;;;;;;3.00;1.25;;;;;20.53;63.08;100645.72;5058363;28;45387;-66
2022/10/24 09:08:52;;;;;;;;;1.25;0.50;;;;;21.05;62.14;100644.88;5058098;28;45514;-66
2022/10/24 09:11:39;;;;;;;;;4.00;2.00;;;;;20.68;61.92;100649.56;5059080;28;45458;-66
2022/10/24 09:14:19;;;;;;;;;1.00;1.00;;;;;20.15;63.85;100649.50;5037727;28;45290;-67
2022/10/24 09:16:52;;;;;;;;;0.25;0.25;;;;;20.04;64.34;100641.59;5043341;28;45488;-66
2022/10/24 09:19:21;;;;;;;;;3.25;2.00;;;;;20.19;63.67;100649.19;5057779;28;45381;-65
2022/10/24 09:21:49;;;;;;;;;1.75;1.25;;;;;20.48;63.61;100633.50;5057367;28;45331;-65
2022/10/24 09:24:40;;;;;;;;;2.75;1.50;;;;;20.42;62.52;100654.94;5072872;28;45469;-64
2022/10/24 09:27:13;;;;;;;;;3.00;1.00;;;;;20.09;63.67;100652.81;5057890;28;45353;-65
2022/10/24 09:29:39;;;;;;;;;0.00;0.00;;;;;19.77;64.44;100659.59;5057577;28;46846;-64
2022/10/24 09:32:13;;;;;;;;;1.00;1.00;;;;;19.52;64.90;100639.53;5057884;28;45366;-64
2022/10/24 09:34:39;;;;;;;;;2.50;0.75;;;;;19.52;64.78;100644.94;5058124;28;45420;-65
2022/10/24 09:37:04;;;;;;;;;2.00;0.50;;;;;19.62;65.14;100694.44;5057329;28;45420;-64
2022/10/24 09:39:33;;;;;;;;;2.50;2.50;;;;;19.56;64.60;100670.69;5032647;28;46466;-66
2022/10/24 09:42:00;;;;;;;;;4.75;2.75;;;;;20.72;61.30;100680.78;5027249;28;45382;-65
2022/10/24 09:44:46;;;;;;;;;3.00;0.00;;;;;22.01;57.91;100657.22;5013841;28;45531;-65
2022/10/24 09:47:25;;;;;;;;;3.33;2.00;;;;;21.71;58.10;100673.13;5030330;28;45396;-66
2022/10/24 09:49:52;;;;;;;;;1.67;1.00;;;;;21.61;57.89;100667.00;5030929;28;47224;-66
2022/10/24 09:52:25;;;;;;;;;1.67;0.67;;;;;22.10;57.52;100671.69;5021343;28;45483;-65
2022/10/24 09:55:21;;;;;;;;;3.67;2.33;;;;;21.28;59.71;100683.13;5037100;28;45277;-66
2022/10/24 09:57:52;;;;;;;;;1.67;1.33;;;;;20.84;61.59;100684.09;5036616;28;45424;-66
2022/10/24 10:00:23;;;;;;;;;2.33;2.00;;;;;20.50;61.76;100680.25;5036960;28;45351;-66
2022/10/24 10:03:19;;;;;;;;;2.75;1.75;;;;;20.11;63.34;100691.44;5035623;28;45322;-66
2022/10/24 10:05:51;;;;;;;;;0.33;0.33;;;;;19.96;64.06;100679.41;5035620;28;45411;-64
2022/10/24 10:08:21;;;;;;;;;3.00;1.00;;;;;19.81;63.73;100682.69;5036175;28;45669;-65
2022/10/24 10:10:57;;;;;;;;;1.00;0.67;;;;;19.80;64.19;100699.91;5036902;28;45411;-65
2022/10/24 10:13:24;;;;;;;;;0.67;0.00;;;;;19.71;64.30;100684.56;5019039;28;45401;-65
2022/10/24 10:15:57;;;;;;;;;1.33;0.33;;;;;19.81;64.90;100689.94;5037529;28;45325;-64
2022/10/24 10:18:25;;;;;;;;;2.00;1.33;;;;;20.19;64.38;100704.19;5036864;28;45570;-64
2022/10/24 10:21:05;;;;;;;;;1.67;1.00;;;;;20.45;64.22;100704.25;5035498;28;45721;-66
2022/10/24 10:23:35;;;;;;;;;1.33;1.33;;;;;20.52;62.93;100700.94;5036966;28;45378;-65
2022/10/24 10:26:15;;;;;;;;;0.33;0.00;;;;;20.42;62.86;100712.69;5037291;28;45368;-65
2022/10/24 10:28:57;;;;;;;;;2.67;0.67;;;;;20.33;63.84;100691.97;5037130;28;45371;-65
2022/10/24 10:31:40;;;;;;;;;1.00;1.00;;;;;20.38;62.92;100677.94;5037043;28;45685;-65
2022/10/24 10:34:15;;;;;;;;;2.67;0.33;;;;;20.48;63.52;100698.50;5037122;28;45431;-66
2022/10/24 10:36:54;;;;;;;;;3.75;1.25;;;;;20.62;64.48;100698.97;5036889;28;45360;-65
2022/10/24 10:39:54;;;;;;;;;1.00;1.00;;;;;20.65;62.90;100706.78;5055339;28;45388;-65
2022/10/24 10:42:26;;;;;;;;;0.50;0.50;;;;;20.72;63.90;100712.44;5056582;28;45384;-65
2022/10/24 10:45:30;;;;;;;;;3.33;2.00;;;;;20.16;63.38;100609.72;5056808;28;45440;-64
2022/10/24 10:48:14;;;;;;;;;1.00;1.00;;;;;20.83;63.29;100712.19;4975255;28;45437;-67
2022/10/24 10:51:04;;;;;;;;;2.25;1.00;;;;;20.78;62.93;100709.09;4975149;28;45516;-65
2022/10/24 10:53:47;;;;;;;;;1.67;1.00;;;;;20.71;62.22;100714.31;4974550;28;45566;-65
2022/10/24 10:56:41;;;;;;;;;2.33;2.00;;;;;20.84;62.13;100712.03;4974551;28;45440;-65
2022/10/24 10:59:33;;;;;;;;;1.33;1.00;;;;;20.86;61.45;100700.19;4964197;28;45409;-65
2022/10/24 11:02:36;;;;;;;;;1.00;1.00;;;;;20.82;61.97;100727.59;4974942;28;45345;-65
2022/10/24 11:05:39;;;;;;;;;2.00;0.00;;;;;20.76;61.94;100716.56;4974427;28;46414;-67
2022/10/24 11:08:27;;;;;;;;;3.00;2.00;;;;;20.73;62.46;100706.00;4974342;28;45347;-65
2022/10/24 11:11:02;;;;;;;;;1.00;1.00;;;;;20.67;61.42;100718.31;4974274;28;45257;-66
2022/10/24 11:13:37;;;;;;;;;1.00;1.00;;;;;20.54;62.18;100707.88;4974422;28;45667;-64
2022/10/24 11:16:13;;;;;;;;;1.00;1.00;;;;;20.53;62.53;100700.75;4974111;28;45321;-65
2022/10/24 11:18:45;;;;;;;;;1.67;1.00;;;;;20.64;61.96;100700.50;4974323;28;45447;-65
2022/10/24 11:21:13;;;;;;;;;0.33;0.33;;;;;20.38;61.62;100653.56;4974678;28;45453;-65
2022/10/24 11:23:41;;;;;;;;;0.00;0.00;;;;;20.57;61.92;100702.16;5007058;28;45483;-65
2022/10/24 11:26:12;;;;;;;;;0.33;0.00;;;;;20.62;61.71;100688.13;5034381;28;47202;-64
2022/10/24 11:28:58;;;;;;;;;0.67;0.67;;;;;21.02;61.64;100694.00;5035709;28;45424;-65
2022/10/24 11:31:32;;;;;;;;;1.00;1.00;;;;;20.86;60.61;100670.38;5035880;28;45313;-65
2022/10/24 11:34:11;;;;;;;;;0.00;0.00;;;;;20.91;60.71;100687.00;5035758;28;45305;-65
2022/10/24 11:36:50;;;;;;;;;0.00;0.00;;;;;20.83;60.98;100707.63;5035769;28;46553;-65
2022/10/24 11:39:18;;;;;;;;;1.67;1.00;;;;;20.64;61.36;100714.06;5035119;28;45362;-65
2022/10/24 11:41:47;;;;;;;;;1.00;1.00;;;;;20.64;62.31;100714.06;5035516;28;45392;-64